Time;durP1;ratioP1;P1;durP2;ratioP2;P2;SDS_P1;SDS_P2;PMS_P1;PMS_P2;Temp;Humidity;BMP_temperature;BMP_pressure;BME280_temperature;BME280_humidity;BME280_pressure;Samples;Min_cycle;Max_cycle;Signal;HPM_P1;HPM_P2
2021/01/26 00:00:45;;;;;;;3.45;1.00;;;;;;;;;;5052459;28;20029;-43
2021/01/26 00:03:11;;;;;;;2.72;0.88;;;;;;;;;;5053643;28;20021;-41
2021/01/26 00:05:38;;;;;;;3.97;0.95;;;;;;;;;;5052873;28;20423;-45
2021/01/26 00:08:04;;;;;;;2.78;1.00;;;;;;;;;;5052421;28;20017;-49
2021/01/26 00:10:30;;;;;;;3.75;0.85;;;;;;;;;;5052452;28;20325;-50
2021/01/26 00:12:56;;;;;;;4.22;1.05;;;;;;;;;;5052331;28;20029;-38
2021/01/26 00:15:22;;;;;;;3.03;0.70;;;;;;;;;;5052291;28;20574;-44
2021/01/26 00:17:49;;;;;;;3.90;0.90;;;;;;;;;;5052279;28;20121;-47
2021/01/26 00:20:15;;;;;;;2.53;0.73;;;;;;;;;;5052290;28;20021;-48
2021/01/26 00:22:42;;;;;;;2.92;0.80;;;;;;;;;;5052220;28;20480;-49
2021/01/26 00:25:09;;;;;;;2.95;0.93;;;;;;;;;;5052535;28;20353;-42
2021/01/26 00:27:36;;;;;;;4.10;1.20;;;;;;;;;;5052289;28;20542;-43
2021/01/26 00:30:04;;;;;;;3.60;1.08;;;;;;;;;;5052215;28;20024;-52
2021/01/26 00:32:30;;;;;;;2.78;0.93;;;;;;;;;;5052128;28;20460;-42
2021/01/26 00:34:56;;;;;;;3.53;1.00;;;;;;;;;;5053396;28;20059;-47
2021/01/26 00:37:22;;;;;;;3.80;1.20;;;;;;;;;;5056271;28;20116;-47
2021/01/26 00:39:49;;;;;;;5.30;1.00;;;;;;;;;;5056448;28;20032;-45
2021/01/26 00:42:15;;;;;;;4.38;0.95;;;;;;;;;;5056176;28;20071;-44
2021/01/26 00:44:41;;;;;;;4.72;1.10;;;;;;;;;;5056226;28;20544;-48
2021/01/26 00:47:07;;;;;;;4.03;1.10;;;;;;;;;;5056116;28;20053;-49
2021/01/26 00:49:33;;;;;;;3.15;1.10;;;;;;;;;;5056307;28;20112;-48
2021/01/26 00:51:59;;;;;;;4.40;1.30;;;;;;;;;;5056028;28;20040;-39
2021/01/26 00:54:25;;;;;;;6.55;1.10;;;;;;;;;;5056147;28;20017;-44
2021/01/26 00:56:51;;;;;;;3.40;0.90;;;;;;;;;;5056087;28;20043;-46
2021/01/26 00:59:17;;;;;;;4.72;0.90;;;;;;;;;;5056241;28;20021;-40
2021/01/26 01:01:43;;;;;;;2.75;1.02;;;;;;;;;;5056152;28;20017;-47
2021/01/26 01:04:09;;;;;;;5.15;1.20;;;;;;;;;;5056077;28;20111;-47
2021/01/26 01:06:35;;;;;;;6.18;1.20;;;;;;;;;;5056052;28;20103;-46
2021/01/26 01:09:01;;;;;;;4.53;0.95;;;;;;;;;;5055590;28;20032;-45
2021/01/26 01:11:30;;;;;;;4.40;1.17;;;;;;;;;;5055990;28;20047;-40
2021/01/26 01:13:56;;;;;;;4.82;1.15;;;;;;;;;;5055944;28;20028;-37
2021/01/26 01:16:22;;;;;;;3.38;1.00;;;;;;;;;;5055486;28;20080;-41
2021/01/26 01:18:48;;;;;;;5.72;1.83;;;;;;;;;;5332594;22;20591;-47
2021/01/26 01:21:14;;;;;;;7.07;1.23;;;;;;;;;;5095138;28;20016;-46
2021/01/26 01:23:40;;;;;;;5.57;1.05;;;;;;;;;;5094978;28;20039;-43
2021/01/26 01:26:06;;;;;;;3.78;1.30;;;;;;;;;;5094875;28;20031;-36
2021/01/26 01:28:32;;;;;;;4.07;1.30;;;;;;;;;;5094875;28;20462;-40
2021/01/26 01:30:58;;;;;;;3.88;1.00;;;;;;;;;;5094817;28;20028;-39
2021/01/26 01:33:25;;;;;;;3.50;1.30;;;;;;;;;;5094778;28;20024;-40
2021/01/26 01:35:51;;;;;;;4.35;0.93;;;;;;;;;;5094958;28;20382;-40
2021/01/26 01:38:18;;;;;;;4.88;1.25;;;;;;;;;;5094987;28;20386;-43
2021/01/26 01:40:44;;;;;;;6.35;1.42;;;;;;;;;;5094709;28;20020;-42
2021/01/26 01:43:10;;;;;;;8.65;1.05;;;;;;;;;;5094784;28;20379;-49
2021/01/26 01:45:36;;;;;;;2.80;0.90;;;;;;;;;;5094505;28;20024;-42
2021/01/26 01:48:05;;;;;;;4.60;1.00;;;;;;;;;;5094486;28;20070;-41
2021/01/26 01:50:33;;;;;;;4.60;1.20;;;;;;;;;;5094419;28;20108;-44
2021/01/26 01:53:04;;;;;;;2.42;0.80;;;;;;;;;;5094373;28;20439;-41
2021/01/26 01:55:32;;;;;;;5.05;1.00;;;;;;;;;;5094251;28;20043;-48
2021/01/26 01:58:07;;;;;;;4.35;0.85;;;;;;;;;;5094341;28;20024;-40
2021/01/26 02:00:34;;;;;;;3.10;0.90;;;;;;;;;;5094137;28;20107;-51
2021/01/26 02:03:03;;;;;;;4.60;1.27;;;;;;;;;;5094265;28;20032;-42
2021/01/26 02:05:29;;;;;;;4.85;1.10;;;;;;;;;;5093985;28;20020;-46
2021/01/26 02:07:56;;;;;;;5.32;1.10;;;;;;;;;;5094164;28;20021;-42
2021/01/26 02:10:23;;;;;;;3.15;1.00;;;;;;;;;;5093991;28;20032;-48
2021/01/26 02:12:49;;;;;;;5.72;1.00;;;;;;;;;;5094052;28;20038;-46
2021/01/26 02:15:15;;;;;;;5.80;1.10;;;;;;;;;;5094013;28;20486;-43
2021/01/26 02:17:50;;;;;;;5.07;1.02;;;;;;;;;;5093704;28;20036;-37
2021/01/26 02:20:35;;;;;;;5.70;1.13;;;;;;;;;;5093953;28;20052;-45
2021/01/26 02:23:16;;;;;;;7.60;2.38;;;;;;;;;;5093843;28;20020;-48
2021/01/26 02:25:45;;;;;;;5.07;1.13;;;;;;;;;;5093774;28;20382;-38
2021/01/26 02:28:30;;;;;;;3.67;1.00;;;;;;;;;;5094083;28;20035;-40
2021/01/26 02:31:15;;;;;;;5.28;1.00;;;;;;;;;;5093608;28;20050;-50
2021/01/26 02:33:50;;;;;;;5.22;1.35;;;;;;;;;;5093617;28;20063;-41
2021/01/26 02:36:28;;;;;;;2.92;1.00;;;;;;;;;;5093717;28;20438;-43
2021/01/26 02:39:04;;;;;;;2.50;0.90;;;;;;;;;;5093470;28;20035;-38
2021/01/26 02:41:38;;;;;;;3.60;1.00;;;;;;;;;;5093478;28;20069;-42
2021/01/26 02:44:07;;;;;;;3.22;1.20;;;;;;;;;;5093672;28;20028;-44
2021/01/26 02:46:42;;;;;;;3.75;1.00;;;;;;;;;;5093300;28;20375;-45
2021/01/26 02:49:15;;;;;;;3.95;1.10;;;;;;;;;;5093545;28;20020;-44
2021/01/26 02:51:48;;;;;;;5.25;1.00;;;;;;;;;;5093321;28;20047;-51
2021/01/26 02:54:22;;;;;;;3.25;1.08;;;;;;;;;;5093478;28;20024;-42
2021/01/26 02:56:54;;;;;;;4.13;0.90;;;;;;;;;;5093250;28;20096;-45
2021/01/26 02:59:32;;;;;;;2.33;0.70;;;;;;;;;;5092735;28;20516;-49
2021/01/26 03:02:08;;;;;;;2.85;0.90;;;;;;;;;;5093319;28;20348;-46
2021/01/26 03:04:52;;;;;;;5.50;0.93;;;;;;;;;;5092847;28;20471;-41
2021/01/26 03:07:20;;;;;;;3.92;0.98;;;;;;;;;;5093109;28;20064;-42
2021/01/26 03:09:48;;;;;;;5.35;1.40;;;;;;;;;;5092972;28;20555;-45
2021/01/26 03:12:16;;;;;;;3.90;0.90;;;;;;;;;;5093134;28;20386;-51
2021/01/26 03:14:42;;;;;;;3.72;0.95;;;;;;;;;;5093054;28;21102;-45
2021/01/26 03:17:26;;;;;;;6.25;1.33;;;;;;;;;;5092720;28;20382;-48
2021/01/26 03:19:54;;;;;;;4.75;1.23;;;;;;;;;;5091441;28;20048;-45
2021/01/26 03:22:22;;;;;;;5.35;1.02;;;;;;;;;;5092864;28;20023;-46
2021/01/26 03:24:51;;;;;;;4.43;0.95;;;;;;;;;;5092790;28;20020;-48
2021/01/26 03:27:18;;;;;;;5.45;0.93;;;;;;;;;;5092509;28;20020;-44
2021/01/26 03:29:46;;;;;;;3.13;0.98;;;;;;;;;;5092573;28;20035;-42
2021/01/26 03:32:17;;;;;;;3.78;1.10;;;;;;;;;;5092500;28;20032;-41
2021/01/26 03:34:43;;;;;;;4.13;0.90;;;;;;;;;;5092620;28;20031;-38
2021/01/26 03:37:10;;;;;;;1.17;0.60;;;;;;;;;;5092187;28;20032;-42
2021/01/26 03:39:36;;;;;;;3.97;0.90;;;;;;;;;;5092419;28;20027;-46
2021/01/26 03:42:04;;;;;;;4.03;1.00;;;;;;;;;;5092325;28;20035;-41
2021/01/26 03:44:30;;;;;;;4.10;1.10;;;;;;;;;;5092604;28;20095;-48
2021/01/26 03:47:05;;;;;;;3.60;0.90;;;;;;;;;;5092254;28;20034;-47
2021/01/26 03:49:50;;;;;;;5.80;1.30;;;;;;;;;;5092196;28;20031;-44
2021/01/26 03:52:16;;;;;;;7.60;1.23;;;;;;;;;;5092118;28;20024;-50
2021/01/26 03:54:45;;;;;;;6.07;1.83;;;;;;;;;;5092125;28;20028;-47
2021/01/26 03:57:11;;;;;;;4.32;0.90;;;;;;;;;;5092061;28;20592;-52
2021/01/26 03:59:51;;;;;;;3.90;1.15;;;;;;;;;;5092061;28;20028;-50
2021/01/26 04:02:21;;;;;;;4.72;1.40;;;;;;;;;;5092324;28;20103;-50
2021/01/26 04:04:51;;;;;;;9.55;2.50;;;;;;;;;;5092048;28;20024;-45
2021/01/26 04:07:20;;;;;;;15.32;5.00;;;;;;;;;;5091824;28;20023;-46
2021/01/26 04:09:57;;;;;;;27.42;10.82;;;;;;;;;;5090994;28;20043;-49
2021/01/26 04:12:26;;;;;;;24.30;9.35;;;;;;;;;;5092028;28;20024;-45
2021/01/26 04:14:52;;;;;;;16.55;6.00;;;;;;;;;;5091992;28;20032;-40
2021/01/26 04:17:27;;;;;;;15.05;5.88;;;;;;;;;;5092011;28;20031;-41
2021/01/26 04:19:58;;;;;;;29.95;10.40;;;;;;;;;;5091730;28;20111;-45
2021/01/26 04:22:24;;;;;;;26.60;8.27;;;;;;;;;;5091825;28;20056;-44
2021/01/26 04:24:51;;;;;;;24.45;8.10;;;;;;;;;;5091718;28;20053;-43
2021/01/26 04:27:19;;;;;;;19.85;7.53;;;;;;;;;;5091889;28;20028;-46
2021/01/26 04:29:45;;;;;;;8.82;3.40;;;;;;;;;;5091664;28;20066;-44
2021/01/26 04:32:11;;;;;;;42.13;12.65;;;;;;;;;;5091610;28;20107;-39
2021/01/26 04:34:37;;;;;;;26.80;10.18;;;;;;;;;;5091651;28;20024;-48
2021/01/26 04:37:03;;;;;;;22.42;8.32;;;;;;;;;;5091426;28;20479;-50
2021/01/26 04:39:29;;;;;;;26.23;7.93;;;;;;;;;;5091510;28;20039;-48
2021/01/26 04:42:08;;;;;;;23.08;8.43;;;;;;;;;;5090438;28;20492;-44
2021/01/26 04:44:40;;;;;;;22.17;7.20;;;;;;;;;;5091521;28;20114;-39
2021/01/26 04:47:06;;;;;;;21.77;7.75;;;;;;;;;;5091487;28;20420;-45
2021/01/26 04:49:36;;;;;;;36.40;14.63;;;;;;;;;;5091445;28;20038;-41
2021/01/26 04:52:02;;;;;;;12.48;5.28;;;;;;;;;;5091314;28;20506;-42
2021/01/26 04:54:34;;;;;;;11.10;5.10;;;;;;;;;;5091423;28;20476;-46
2021/01/26 04:57:00;;;;;;;11.07;4.28;;;;;;;;;;5091530;28;20032;-46
2021/01/26 04:59:39;;;;;;;12.95;5.05;;;;;;;;;;5091487;28;20034;-41
2021/01/26 05:02:24;;;;;;;15.80;5.55;;;;;;;;;;5091402;28;20028;-37
2021/01/26 05:05:01;;;;;;;20.52;6.90;;;;;;;;;;5091236;28;20074;-39
2021/01/26 05:07:30;;;;;;;21.02;7.82;;;;;;;;;;5091303;28;20028;-38
2021/01/26 05:10:07;;;;;;;16.20;5.20;;;;;;;;;;5091422;28;20024;-43
2021/01/26 05:12:44;;;;;;;20.58;8.65;;;;;;;;;;5091197;28;20522;-36
2021/01/26 05:15:13;;;;;;;16.23;7.00;;;;;;;;;;5091159;28;20430;-41
2021/01/26 05:17:42;;;;;;;17.10;7.10;;;;;;;;;;5091039;28;20161;-35
2021/01/26 05:20:08;;;;;;;16.45;6.63;;;;;;;;;;5091162;28;20043;-41
2021/01/26 05:22:51;;;;;;;16.60;7.15;;;;;;;;;;5094781;28;20484;-36
2021/01/26 05:25:21;;;;;;;22.48;10.63;;;;;;;;;;5095013;28;20010;-44
2021/01/26 05:27:48;;;;;;;21.35;10.57;;;;;;;;;;5094893;28;20032;-46
2021/01/26 05:30:18;;;;;;;17.27;9.32;;;;;;;;;;5094898;28;20475;-40
2021/01/26 05:32:45;;;;;;;21.70;10.40;;;;;;;;;;5094731;28;20490;-38
2021/01/26 05:35:13;;;;;;;19.58;8.23;;;;;;;;;;5095021;28;20024;-40
2021/01/26 05:37:39;;;;;;;11.93;5.05;;;;;;;;;;5094575;28;20502;-41
2021/01/26 05:40:21;;;;;;;18.98;9.65;;;;;;;;;;5094701;28;20151;-42
2021/01/26 05:42:52;;;;;;;20.48;9.27;;;;;;;;;;5094638;28;20020;-45
2021/01/26 05:45:20;;;;;;;19.45;11.18;;;;;;;;;;5094542;28;20559;-46
2021/01/26 05:47:46;;;;;;;11.25;5.68;;;;;;;;;;5094561;28;20408;-42
2021/01/26 05:50:31;;;;;;;11.45;4.88;;;;;;;;;;5094638;28;20049;-40
2021/01/26 05:53:07;;;;;;;10.18;5.13;;;;;;;;;;5095286;28;20020;-39
2021/01/26 05:55:34;;;;;;;11.45;6.50;;;;;;;;;;5094964;28;20060;-37
2021/01/26 05:58:07;;;;;;;21.58;9.30;;;;;;;;;;5095087;28;20471;-43
2021/01/26 06:00:34;;;;;;;29.98;13.85;;;;;;;;;;5095207;28;20103;-43
2021/01/26 06:03:06;;;;;;;32.70;14.82;;;;;;;;;;5095304;28;20032;-44
2021/01/26 06:05:32;;;;;;;25.15;12.15;;;;;;;;;;5095009;28;20023;-40
2021/01/26 06:08:06;;;;;;;29.08;12.65;;;;;;;;;;5095204;28;20028;-40
2021/01/26 06:10:33;;;;;;;22.17;11.63;;;;;;;;;;5095109;28;20031;-42
2021/01/26 06:12:59;;;;;;;22.98;10.40;;;;;;;;;;5094369;28;20073;-36
2021/01/26 06:15:27;;;;;;;17.98;8.10;;;;;;;;;;5094139;28;20387;-40
2021/01/26 06:18:13;;;;;;;16.95;8.23;;;;;;;;;;5093915;28;20614;-45
2021/01/26 06:20:40;;;;;;;16.80;7.80;;;;;;;;;;5093753;28;20031;-45
2021/01/26 06:23:17;;;;;;;17.58;7.40;;;;;;;;;;5093734;28;20017;-46
2021/01/26 06:25:44;;;;;;;23.20;11.30;;;;;;;;;;5093562;28;20032;-46
2021/01/26 06:28:16;;;;;;;22.38;10.77;;;;;;;;;;5093662;28;20077;-42
2021/01/26 06:30:46;;;;;;;22.45;9.98;;;;;;;;;;5093653;28;20030;-47
2021/01/26 06:33:12;;;;;;;23.42;11.15;;;;;;;;;;5092902;28;20020;-41
2021/01/26 06:35:41;;;;;;;11.60;6.50;;;;;;;;;;5093821;28;20071;-51
2021/01/26 06:38:10;;;;;;;21.73;11.23;;;;;;;;;;5093749;28;20418;-45
2021/01/26 06:40:47;;;;;;;20.23;9.35;;;;;;;;;;5093569;28;20043;-36
2021/01/26 06:43:13;;;;;;;19.60;10.27;;;;;;;;;;5092671;28;20028;-47
2021/01/26 06:45:50;;;;;;;34.20;16.10;;;;;;;;;;5093335;28;20027;-36
2021/01/26 06:48:28;;;;;;;31.55;15.65;;;;;;;;;;5093840;28;20027;-40
2021/01/26 06:51:08;;;;;;;46.45;23.10;;;;;;;;;;5094020;28;20020;-43
2021/01/26 06:53:40;;;;;;;45.60;22.35;;;;;;;;;;5093858;28;20089;-43
2021/01/26 06:56:09;;;;;;;34.83;17.67;;;;;;;;;;5093784;28;20139;-41
2021/01/26 06:58:44;;;;;;;33.03;17.48;;;;;;;;;;5093463;28;20035;-42
2021/01/26 07:01:29;;;;;;;25.75;13.02;;;;;;;;;;5093815;28;20085;-45
2021/01/26 07:04:13;;;;;;;24.67;12.20;;;;;;;;;;5092657;28;20025;-38
2021/01/26 07:06:40;;;;;;;20.73;11.13;;;;;;;;;;5093881;28;20367;-37
2021/01/26 07:09:24;;;;;;;16.83;9.05;;;;;;;;;;5089870;28;20380;-44
2021/01/26 07:12:02;;;;;;;19.60;10.02;;;;;;;;;;5090989;28;20016;-47
2021/01/26 07:14:28;;;;;;;26.88;11.93;;;;;;;;;;5091671;28;20027;-38
2021/01/26 07:16:55;;;;;;;25.13;13.05;;;;;;;;;;5091872;28;20040;-40
2021/01/26 07:19:28;;;;;;;28.15;13.20;;;;;;;;;;5092130;28;20517;-40
2021/01/26 07:22:08;;;;;;;20.58;9.80;;;;;;;;;;5092336;28;20084;-47
2021/01/26 07:24:46;;;;;;;17.17;7.82;;;;;;;;;;5091233;28;20020;-42
2021/01/26 07:27:35;;;;;;;23.17;10.73;;;;;;;;;;5092256;28;20028;-40
2021/01/26 07:30:22;;;;;;;19.48;9.82;;;;;;;;;;5083654;28;20085;-41
2021/01/26 07:32:48;;;;;;;16.13;7.13;;;;;;;;;;5091085;28;20073;-40
2021/01/26 07:35:19;;;;;;;18.08;8.15;;;;;;;;;;5091638;28;20039;-51
2021/01/26 07:37:50;;;;;;;19.20;9.02;;;;;;;;;;5092558;28;20103;-45
2021/01/26 07:40:19;;;;;;;14.52;7.72;;;;;;;;;;5091731;28;20031;-36
2021/01/26 07:42:58;;;;;;;14.98;7.18;;;;;;;;;;5091918;28;20031;-48
2021/01/26 07:45:27;;;;;;;11.98;6.45;;;;;;;;;;5091625;28;20062;-37
2021/01/26 07:47:58;;;;;;;16.42;8.75;;;;;;;;;;5091992;28;20467;-46
2021/01/26 07:50:26;;;;;;;15.60;8.13;;;;;;;;;;5091933;28;20081;-40
2021/01/26 07:52:56;;;;;;;14.38;8.10;;;;;;;;;;5092285;28;20099;-51
2021/01/26 07:55:28;;;;;;;12.88;7.75;;;;;;;;;;5091397;28;20489;-40
2021/01/26 07:58:00;;;;;;;10.67;4.83;;;;;;;;;;5092255;28;20047;-42
2021/01/26 08:00:30;;;;;;;9.30;5.05;;;;;;;;;;5091753;28;20368;-46
2021/01/26 08:02:57;;;;;;;9.65;5.10;;;;;;;;;;5091678;28;20024;-46
2021/01/26 08:05:41;;;;;;;11.40;6.05;;;;;;;;;;5092000;28;20074;-40
2021/01/26 08:08:09;;;;;;;11.07;5.78;;;;;;;;;;5091915;28;20028;-44
2021/01/26 08:10:36;;;;;;;14.32;7.53;;;;;;;;;;5091793;28;20555;-41
2021/01/26 08:13:02;;;;;;;13.75;6.97;;;;;;;;;;5091745;28;20020;-48
2021/01/26 08:15:33;;;;;;;17.58;8.60;;;;;;;;;;5091525;28;20032;-43
2021/01/26 08:18:16;;;;;;;15.02;7.38;;;;;;;;;;5090251;28;20054;-39
2021/01/26 08:20:43;;;;;;;12.90;7.18;;;;;;;;;;5091624;28;20452;-42
2021/01/26 08:23:12;;;;;;;12.40;6.28;;;;;;;;;;5091709;28;20044;-45
2021/01/26 08:25:42;;;;;;;13.68;7.07;;;;;;;;;;5091435;28;20032;-45
2021/01/26 08:28:08;;;;;;;19.88;9.70;;;;;;;;;;5091656;28;20024;-48
2021/01/26 08:30:48;;;;;;;19.00;9.57;;;;;;;;;;5091649;28;20070;-42
2021/01/26 08:33:18;;;;;;;26.60;13.48;;;;;;;;;;5091542;28;20118;-40
2021/01/26 08:36:03;;;;;;;27.10;12.73;;;;;;;;;;5091177;28;20032;-48
2021/01/26 08:38:47;;;;;;;22.35;10.70;;;;;;;;;;5091251;28;20028;-48
2021/01/26 08:41:31;;;;;;;18.15;10.27;;;;;;;;;;5089217;28;20035;-40
2021/01/26 08:43:58;;;;;;;22.63;12.38;;;;;;;;;;5088609;28;20116;-40
2021/01/26 08:46:34;;;;;;;25.40;12.45;;;;;;;;;;5091443;28;20451;-48
2021/01/26 08:49:03;;;;;;;36.08;16.23;;;;;;;;;;5091143;28;20105;-46
2021/01/26 08:51:29;;;;;;;19.65;9.60;;;;;;;;;;5091637;28;20028;-50
2021/01/26 08:53:56;;;;;;;11.07;5.97;;;;;;;;;;5091473;28;20028;-50
2021/01/26 08:56:22;;;;;;;11.15;5.97;;;;;;;;;;5092305;28;20050;-36
2021/01/26 08:58:53;;;;;;;17.08;8.45;;;;;;;;;;5095143;28;20024;-47
2021/01/26 09:01:22;;;;;;;16.65;8.40;;;;;;;;;;5095336;28;20091;-47
2021/01/26 09:03:50;;;;;;;16.13;7.90;;;;;;;;;;5095748;28;20024;-45
2021/01/26 09:06:34;;;;;;;11.65;5.57;;;;;;;;;;5095806;28;20470;-40
2021/01/26 09:09:01;;;;;;;15.80;7.82;;;;;;;;;;5095915;28;20039;-44
2021/01/26 09:11:27;;;;;;;25.80;12.15;;;;;;;;;;5095638;28;20020;-42
2021/01/26 09:13:54;;;;;;;18.17;8.57;;;;;;;;;;5095534;28;20028;-46
2021/01/26 09:16:26;;;;;;;23.40;10.98;;;;;;;;;;5095641;28;20035;-46
2021/01/26 09:18:57;;;;;;;17.83;9.13;;;;;;;;;;5095293;28;20040;-45
2021/01/26 09:21:24;;;;;;;23.88;11.38;;;;;;;;;;5112619;28;20024;-45
2021/01/26 09:23:55;;;;;;;19.50;9.32;;;;;;;;;;5116230;27;20358;-38
2021/01/26 09:26:22;;;;;;;25.23;12.43;;;;;;;;;;5114807;28;20030;-43
2021/01/26 09:28:50;;;;;;;26.55;10.40;;;;;;;;;;5114841;28;20080;-41
2021/01/26 09:31:18;;;;;;;18.02;9.57;;;;;;;;;;5131043;27;20031;-40
2021/01/26 09:33:44;;;;;;;19.25;9.57;;;;;;;;;;5098004;28;20428;-44
2021/01/26 09:36:20;;;;;;;18.42;9.60;;;;;;;;;;5094895;28;20050;-42
2021/01/26 09:38:48;;;;;;;15.55;8.32;;;;;;;;;;5095472;28;20161;-43
2021/01/26 09:41:14;;;;;;;13.23;7.60;;;;;;;;;;5095187;28;20387;-36
2021/01/26 09:43:43;;;;;;;15.75;8.85;;;;;;;;;;5095445;28;20106;-42
2021/01/26 09:46:14;;;;;;;23.65;9.35;;;;;;;;;;5090332;28;20020;-46
2021/01/26 09:48:45;;;;;;;15.90;7.63;;;;;;;;;;5075667;28;20028;-50
2021/01/26 09:51:13;;;;;;;16.42;7.70;;;;;;;;;;5093173;28;20356;-35
2021/01/26 09:53:40;;;;;;;16.17;7.72;;;;;;;;;;5094055;28;20089;-46
2021/01/26 09:56:07;;;;;;;15.70;7.63;;;;;;;;;;5093916;28;20089;-44
2021/01/26 09:58:33;;;;;;;10.38;5.35;;;;;;;;;;5094055;28;20430;-39
2021/01/26 10:01:00;;;;;;;18.17;8.25;;;;;;;;;;5094232;28;20106;-41
2021/01/26 10:03:27;;;;;;;14.65;7.05;;;;;;;;;;5094860;28;20463;-45
2021/01/26 10:05:54;;;;;;;15.07;7.63;;;;;;;;;;5094890;28;20031;-44
2021/01/26 10:08:20;;;;;;;11.20;6.30;;;;;;;;;;5093357;28;20028;-38
2021/01/26 10:10:46;;;;;;;8.77;5.25;;;;;;;;;;5094604;28;20043;-44
2021/01/26 10:13:20;;;;;;;18.77;9.25;;;;;;;;;;5094629;28;20093;-44
2021/01/26 10:15:46;;;;;;;12.50;7.82;;;;;;;;;;5094469;28;20078;-44
2021/01/26 10:18:14;;;;;;;10.00;5.70;;;;;;;;;;5094568;28;20403;-43
2021/01/26 10:20:49;;;;;;;13.27;7.13;;;;;;;;;;5094542;28;20032;-45
2021/01/26 10:23:15;;;;;;;13.95;7.38;;;;;;;;;;5094726;28;20024;-38
2021/01/26 10:25:42;;;;;;;17.27;8.70;;;;;;;;;;5094581;28;20063;-39
2021/01/26 10:28:21;;;;;;;11.77;6.05;;;;;;;;;;5094324;28;20416;-39
2021/01/26 10:30:48;;;;;;;14.38;8.50;;;;;;;;;;5094379;28;20115;-42
2021/01/26 10:33:32;;;;;;;14.23;8.30;;;;;;;;;;5094064;28;20029;-42
2021/01/26 10:36:17;;;;;;;24.95;14.95;;;;;;;;;;5093073;28;20032;-45
2021/01/26 10:38:43;;;;;;;15.32;8.55;;;;;;;;;;5094325;28;20028;-43
2021/01/26 10:41:09;;;;;;;15.40;6.55;;;;;;;;;;5094428;28;20030;-37
2021/01/26 10:43:36;;;;;;;13.05;6.72;;;;;;;;;;5094316;28;20405;-36
2021/01/26 10:46:02;;;;;;;15.60;7.00;;;;;;;;;;5094238;28;20051;-41
2021/01/26 10:48:31;;;;;;;15.88;7.65;;;;;;;;;;5094067;28;20016;-41
2021/01/26 10:51:08;;;;;;;14.40;7.28;;;;;;;;;;5093579;28;20522;-37
2021/01/26 10:53:35;;;;;;;14.60;7.35;;;;;;;;;;5093560;28;20051;-40
2021/01/26 10:56:01;;;;;;;15.77;7.60;;;;;;;;;;5093707;28;20028;-40
2021/01/26 10:58:27;;;;;;;13.38;7.20;;;;;;;;;;5094127;28;20492;-39
2021/01/26 11:00:54;;;;;;;9.23;5.40;;;;;;;;;;5094128;28;20020;-36
2021/01/26 11:03:20;;;;;;;9.57;5.30;;;;;;;;;;5094097;28;20024;-44
2021/01/26 11:05:46;;;;;;;9.00;4.88;;;;;;;;;;5089873;28;20036;-41
2021/01/26 11:08:12;;;;;;;9.63;5.80;;;;;;;;;;5093066;28;20459;-42
2021/01/26 11:10:38;;;;;;;9.10;5.82;;;;;;;;;;5092893;28;20081;-43
2021/01/26 11:13:04;;;;;;;13.18;7.22;;;;;;;;;;5092594;28;20028;-44
2021/01/26 11:15:30;;;;;;;14.98;7.90;;;;;;;;;;5093068;28;20028;-47
2021/01/26 11:17:57;;;;;;;11.82;6.25;;;;;;;;;;5092523;28;20075;-40
2021/01/26 11:20:23;;;;;;;12.63;6.97;;;;;;;;;;5092651;28;20020;-40
2021/01/26 11:22:49;;;;;;;12.40;6.72;;;;;;;;;;5093150;28;20020;-47
2021/01/26 11:25:16;;;;;;;9.38;5.30;;;;;;;;;;5092793;28;21004;-45
2021/01/26 11:27:42;;;;;;;13.95;6.63;;;;;;;;;;5092998;28;20035;-47
2021/01/26 11:30:09;;;;;;;14.50;7.38;;;;;;;;;;5092937;28;20024;-49
2021/01/26 11:32:36;;;;;;;15.52;6.85;;;;;;;;;;5093163;28;20024;-49
2021/01/26 11:35:03;;;;;;;13.25;6.90;;;;;;;;;;5092951;28;20421;-46
2021/01/26 11:37:29;;;;;;;12.02;7.00;;;;;;;;;;5092613;28;20459;-44
2021/01/26 11:39:55;;;;;;;10.38;5.50;;;;;;;;;;5092724;28;20020;-42
2021/01/26 11:42:21;;;;;;;13.10;6.60;;;;;;;;;;5092695;28;20035;-43
2021/01/26 11:44:47;;;;;;;13.82;7.15;;;;;;;;;;5092590;28;20035;-40
2021/01/26 11:47:13;;;;;;;10.18;5.65;;;;;;;;;;5092907;28;20475;-40
2021/01/26 11:49:39;;;;;;;11.80;6.05;;;;;;;;;;5093334;28;20030;-48
2021/01/26 11:52:05;;;;;;;10.73;5.70;;;;;;;;;;5093002;28;20020;-44
2021/01/26 11:54:32;;;;;;;12.98;7.20;;;;;;;;;;5092920;28;20115;-50
2021/01/26 11:56:59;;;;;;;9.13;5.50;;;;;;;;;;5092920;28;20102;-39
2021/01/26 11:59:25;;;;;;;13.63;6.47;;;;;;;;;;5093082;28;20379;-43
2021/01/26 12:01:53;;;;;;;10.32;6.20;;;;;;;;;;5092892;28;20016;-40
2021/01/26 12:04:19;;;;;;;11.98;6.65;;;;;;;;;;5092940;28;20024;-47
2021/01/26 12:06:45;;;;;;;10.15;5.95;;;;;;;;;;5093042;28;20024;-53
2021/01/26 12:09:13;;;;;;;11.82;6.60;;;;;;;;;;5092669;28;20034;-51
2021/01/26 12:11:39;;;;;;;13.43;6.97;;;;;;;;;;5092563;28;20043;-51
2021/01/26 12:14:07;;;;;;;13.70;7.50;;;;;;;;;;5092638;28;20116;-45
2021/01/26 12:16:33;;;;;;;15.60;7.28;;;;;;;;;;5092514;28;20039;-41
2021/01/26 12:18:59;;;;;;;14.25;7.10;;;;;;;;;;5092364;28;20056;-35
2021/01/26 12:21:26;;;;;;;16.92;8.70;;;;;;;;;;5092420;28;20032;-42
2021/01/26 12:23:52;;;;;;;18.40;9.48;;;;;;;;;;5092342;28;20023;-43
2021/01/26 12:26:18;;;;;;;25.73;10.88;;;;;;;;;;5092080;28;20016;-39
2021/01/26 12:28:45;;;;;;;29.83;11.13;;;;;;;;;;5092067;28;20028;-38
2021/01/26 12:31:11;;;;;;;27.10;11.68;;;;;;;;;;5091153;28;20110;-46
2021/01/26 12:33:37;;;;;;;25.08;11.25;;;;;;;;;;5092578;28;20028;-39
2021/01/26 12:36:03;;;;;;;16.15;7.90;;;;;;;;;;5092154;28;20036;-49
2021/01/26 12:38:31;;;;;;;18.85;9.40;;;;;;;;;;5092267;28;20489;-41
2021/01/26 12:40:57;;;;;;;14.95;8.05;;;;;;;;;;5092595;28;20028;-43
2021/01/26 12:43:23;;;;;;;13.88;7.22;;;;;;;;;;5093553;28;20473;-41
2021/01/26 12:45:49;;;;;;;13.70;7.35;;;;;;;;;;5092202;28;20078;-49
2021/01/26 12:48:16;;;;;;;10.45;5.45;;;;;;;;;;5092196;28;20028;-46
2021/01/26 12:50:43;;;;;;;12.98;5.70;;;;;;;;;;5092094;28;20028;-43
2021/01/26 12:53:10;;;;;;;8.13;5.10;;;;;;;;;;5092113;28;20062;-46
2021/01/26 12:55:36;;;;;;;10.38;5.90;;;;;;;;;;5091468;28;20028;-46
2021/01/26 12:58:02;;;;;;;9.95;5.72;;;;;;;;;;5092115;28;20032;-41
2021/01/26 13:00:29;;;;;;;14.30;7.53;;;;;;;;;;5092315;28;20379;-44
2021/01/26 13:02:55;;;;;;;12.70;7.47;;;;;;;;;;5091169;28;20028;-44
2021/01/26 13:05:22;;;;;;;9.65;5.90;;;;;;;;;;5091876;28;20980;-43
2021/01/26 13:07:48;;;;;;;10.43;6.35;;;;;;;;;;5092104;28;20040;-38
2021/01/26 13:10:16;;;;;;;11.15;6.03;;;;;;;;;;5091278;28;20021;-44
2021/01/26 13:12:42;;;;;;;10.95;6.43;;;;;;;;;;5092411;28;20126;-46
2021/01/26 13:15:09;;;;;;;13.75;6.97;;;;;;;;;;5091767;28;20035;-42
2021/01/26 13:17:35;;;;;;;16.73;8.98;;;;;;;;;;5091762;28;20028;-41
2021/01/26 13:20:01;;;;;;;14.27;8.52;;;;;;;;;;5091096;28;20032;-39
2021/01/26 13:22:27;;;;;;;13.88;7.47;;;;;;;;;;5091699;28;20064;-39
2021/01/26 13:24:54;;;;;;;14.45;7.72;;;;;;;;;;5091279;28;20055;-43
2021/01/26 13:27:20;;;;;;;13.45;7.63;;;;;;;;;;5090773;28;20016;-48
2021/01/26 13:29:46;;;;;;;15.10;8.15;;;;;;;;;;5092266;28;20036;-38
2021/01/26 13:32:12;;;;;;;13.40;6.97;;;;;;;;;;5092065;28;20067;-49
2021/01/26 13:34:39;;;;;;;12.65;6.50;;;;;;;;;;5091887;28;20023;-45
2021/01/26 13:37:05;;;;;;;12.88;6.95;;;;;;;;;;5092118;28;20031;-40
2021/01/26 13:39:32;;;;;;;16.40;7.97;;;;;;;;;;5092245;28;20061;-41
2021/01/26 13:41:58;;;;;;;13.63;7.00;;;;;;;;;;5092936;28;20089;-42
2021/01/26 13:44:25;;;;;;;15.70;7.38;;;;;;;;;;5095830;28;20067;-41
2021/01/26 13:46:51;;;;;;;12.55;7.07;;;;;;;;;;5095852;28;20028;-38
2021/01/26 13:49:18;;;;;;;12.15;5.93;;;;;;;;;;5095180;28;20035;-44
2021/01/26 13:51:44;;;;;;;13.43;7.47;;;;;;;;;;5095568;28;20103;-43
2021/01/26 13:54:10;;;;;;;11.90;6.63;;;;;;;;;;5095510;28;20084;-47
2021/01/26 13:56:36;;;;;;;13.95;7.57;;;;;;;;;;5095021;28;20075;-43
2021/01/26 13:59:03;;;;;;;12.60;6.45;;;;;;;;;;5094471;28;20032;-44
2021/01/26 14:01:29;;;;;;;14.00;7.05;;;;;;;;;;5095324;28;20352;-46
2021/01/26 14:03:55;;;;;;;13.85;6.80;;;;;;;;;;5095281;28;20043;-39
2021/01/26 14:06:22;;;;;;;16.88;7.57;;;;;;;;;;5095081;28;20028;-48
2021/01/26 14:08:49;;;;;;;17.42;8.50;;;;;;;;;;5095286;28;20038;-42
2021/01/26 14:11:15;;;;;;;16.85;8.02;;;;;;;;;;5094785;28;20509;-50
2021/01/26 14:13:41;;;;;;;14.48;6.80;;;;;;;;;;5094133;28;20023;-43
2021/01/26 14:16:09;;;;;;;16.05;8.80;;;;;;;;;;5094575;28;20039;-40
2021/01/26 14:18:35;;;;;;;14.15;7.80;;;;;;;;;;5094351;28;20103;-46
2021/01/26 14:21:02;;;;;;;9.57;6.05;;;;;;;;;;5094706;28;20089;-40
2021/01/26 14:23:28;;;;;;;11.40;5.85;;;;;;;;;;5094792;28;20043;-41
2021/01/26 14:25:54;;;;;;;14.75;8.45;;;;;;;;;;5095046;28;20020;-49
2021/01/26 14:28:20;;;;;;;22.13;10.30;;;;;;;;;;5094598;28;20020;-44
2021/01/26 14:30:46;;;;;;;18.23;10.57;;;;;;;;;;5094558;28;20563;-40
2021/01/26 14:33:13;;;;;;;16.58;10.07;;;;;;;;;;5094420;28;20333;-39
2021/01/26 14:35:40;;;;;;;18.65;10.02;;;;;;;;;;5094397;28;20546;-41
2021/01/26 14:38:07;;;;;;;22.33;11.70;;;;;;;;;;5094477;28;20020;-45
2021/01/26 14:40:33;;;;;;;25.85;12.52;;;;;;;;;;5094625;28;20079;-43
2021/01/26 14:42:59;;;;;;;18.98;9.77;;;;;;;;;;5094662;28;20031;-42